createdAt,value
2019-04-14T00:01:30.472Z,52.53
2019-04-14T00:04:01.475Z,51.90
2019-04-14T00:06:29.243Z,56.30
2019-04-14T00:08:56.820Z,59.20
2019-04-14T00:11:24.383Z,55.90
2019-04-14T00:13:52.423Z,60.63
2019-04-14T00:16:20.647Z,56.40
2019-04-14T00:18:47.176Z,53.57
2019-04-14T00:21:15.147Z,58.47
2019-04-14T00:23:43.392Z,52.77
2019-04-14T00:26:24.805Z,52.17
2019-04-14T00:28:52.051Z,52.30
2019-04-14T00:31:19.619Z,55.13
2019-04-14T00:33:48.138Z,58.67
2019-04-14T00:36:21.902Z,62.07
2019-04-14T00:38:49.913Z,55.13
2019-04-14T00:41:35.377Z,57.77
2019-04-14T00:43:53.320Z,59.23
2019-04-14T00:46:33.810Z,59.47
2019-04-14T00:49:00.521Z,54.10
2019-04-14T00:51:26.980Z,56.27
2019-04-14T00:53:55.663Z,58.40
2019-04-14T00:56:22.182Z,57.17
2019-04-14T00:58:49.784Z,57.43
2019-04-14T01:01:18.124Z,57.37
2019-04-14T01:03:46.600Z,65.10
2019-04-14T01:06:16.322Z,59.20
2019-04-14T01:08:42.714Z,60.50
2019-04-14T01:11:11.636Z,60.17
2019-04-14T01:13:38.016Z,57.50
2019-04-14T01:16:12.188Z,62.10
2019-04-14T01:18:34.064Z,61.57
2019-04-14T01:21:00.802Z,58.77
2019-04-14T01:23:28.376Z,55.90
2019-04-14T01:25:56.433Z,55.30
2019-04-14T01:28:24.384Z,57.70
2019-04-14T01:30:52.189Z,61.10
2019-04-14T01:33:18.768Z,63.17
2019-04-14T01:35:47.108Z,57.67
2019-04-14T01:38:14.824Z,61.77
2019-04-14T01:40:42.448Z,58.80
2019-04-14T01:43:12.354Z,58.00
2019-04-14T01:45:40.281Z,63.80
2019-04-14T01:48:08.977Z,63.20
2019-04-14T01:53:42.496Z,58.42
2019-04-14T01:56:10.259Z,63.83
2019-04-14T01:58:38.193Z,62.27
2019-04-14T02:01:08.328Z,55.97
2019-04-14T02:03:36.643Z,61.10
2019-04-14T02:06:03.293Z,62.40
2019-04-14T02:08:33.564Z,63.47
2019-04-14T02:11:01.217Z,63.70
2019-04-14T02:13:28.972Z,62.77
2019-04-14T02:15:57.375Z,63.20
2019-04-14T02:18:25.105Z,64.73
2019-04-14T02:20:53.478Z,62.33
2019-04-14T02:23:21.890Z,60.73
2019-04-14T02:25:49.520Z,62.43
2019-04-14T02:28:17.756Z,69.97
2019-04-14T02:30:52.369Z,64.77
2019-04-14T02:33:46.566Z,89.67
2019-04-14T02:36:15.638Z,75.70
2019-04-14T02:38:41.370Z,76.60
2019-04-14T02:41:09.297Z,78.03
2019-04-14T02:43:39.620Z,74.23
2019-04-14T02:46:00.033Z,75.77
2019-04-14T02:48:41.999Z,72.63
2019-04-14T02:50:56.129Z,75.20
2019-04-14T02:53:23.857Z,76.50
2019-04-14T02:55:58.096Z,76.80
2019-04-14T02:58:20.254Z,77.23
2019-04-14T03:00:48.173Z,74.73
2019-04-14T03:03:16.894Z,76.57
2019-04-14T03:05:45.122Z,72.80
2019-04-14T03:08:11.405Z,77.60
2019-04-14T03:10:48.006Z,77.30
2019-04-14T03:13:08.733Z,68.37
2019-04-14T03:15:32.049Z,75.83
2019-04-14T03:18:16.382Z,72.23
2019-04-14T03:20:39.499Z,66.10
2019-04-14T03:23:19.072Z,70.37
2019-04-14T03:25:34.354Z,67.10
2019-04-14T03:28:24.582Z,64.20
2019-04-14T03:33:48.268Z,65.57
2019-04-14T03:38:13.176Z,75.97
2019-04-14T03:43:13.273Z,66.67
2019-04-14T03:45:37.800Z,64.87
2019-04-14T03:48:19.035Z,69.90
2019-04-14T03:50:21.534Z,74.47
2019-04-14T03:55:05.739Z,65.13
2019-04-14T03:57:21.628Z,69.53
2019-04-14T03:59:49.984Z,73.20
2019-04-14T04:02:18.284Z,72.73
2019-04-14T04:04:46.710Z,71.33
2019-04-14T04:07:14.964Z,78.50
2019-04-14T04:09:45.459Z,74.13
2019-04-14T04:12:13.926Z,76.47
2019-04-14T04:14:40.540Z,80.10
2019-04-14T04:17:08.104Z,78.37
2019-04-14T04:19:42.546Z,74.23
2019-04-14T04:25:20.333Z,73.97
2019-04-14T04:27:52.652Z,69.60
2019-04-14T04:30:21.460Z,69.07
2019-04-14T04:32:55.873Z,72.23
2019-04-14T04:35:28.962Z,72.30
2019-04-14T04:38:11.741Z,66.37
2019-04-14T04:40:39.712Z,69.90
2019-04-14T04:43:07.888Z,68.20
2019-04-14T04:45:34.252Z,65.70
2019-04-14T04:48:02.429Z,65.67
2019-04-14T04:50:30.340Z,63.33
2019-04-14T04:52:58.199Z,62.00
2019-04-14T04:55:24.638Z,55.47
2019-04-14T04:57:52.383Z,64.97
2019-04-14T05:00:20.049Z,58.10
2019-04-14T05:02:48.408Z,60.57
2019-04-14T05:05:27.470Z,58.70
2019-04-14T05:07:55.427Z,62.40
2019-04-14T05:10:28.664Z,59.60
2019-04-14T05:12:56.514Z,61.00
2019-04-14T05:15:27.670Z,59.40
2019-04-14T05:17:55.943Z,60.80
2019-04-14T05:20:22.859Z,59.30
2019-04-14T05:22:50.814Z,60.70
2019-04-14T05:25:19.001Z,57.27
2019-04-14T05:27:47.366Z,56.10
2019-04-14T05:30:16.097Z,65.60
2019-04-14T05:32:45.512Z,63.43
2019-04-14T05:35:12.683Z,57.13
2019-04-14T05:37:40.245Z,58.60
2019-04-14T05:40:08.109Z,68.03
2019-04-14T05:42:36.289Z,67.10
2019-04-14T05:45:04.500Z,70.37
2019-04-14T05:47:32.517Z,66.67
2019-04-14T05:49:59.372Z,71.60
2019-04-14T05:52:29.586Z,77.37
2019-04-14T05:54:56.195Z,86.10
2019-04-14T05:57:24.195Z,76.00
2019-04-14T05:59:52.658Z,89.60
2019-04-14T06:02:20.159Z,76.03
2019-04-14T06:04:48.253Z,83.37
2019-04-14T06:07:17.806Z,72.97
2019-04-14T06:09:45.608Z,72.30
2019-04-14T06:12:13.959Z,75.80
2019-04-14T06:14:41.527Z,71.80
2019-04-14T06:17:10.069Z,72.53
2019-04-14T06:19:40.548Z,81.13
2019-04-14T06:22:05.266Z,78.23
2019-04-14T06:24:32.832Z,76.13
2019-04-14T06:27:00.391Z,79.67
2019-04-14T06:29:27.951Z,87.30
2019-04-14T06:31:56.255Z,74.80
2019-04-14T06:34:25.746Z,76.47
2019-04-14T06:36:57.087Z,79.53
2019-04-14T06:39:25.601Z,75.53
2019-04-14T06:41:54.079Z,76.47
2019-04-14T06:44:21.643Z,79.80
2019-04-14T06:46:49.972Z,71.17
2019-04-14T06:49:17.542Z,73.97
2019-04-14T06:51:46.119Z,72.53
2019-04-14T06:54:13.702Z,65.20
2019-04-14T06:56:41.410Z,72.13
2019-04-14T06:59:08.971Z,69.40
2019-04-14T07:01:38.907Z,64.47
2019-04-14T07:04:04.924Z,65.80
2019-04-14T07:06:32.488Z,70.83
2019-04-14T07:09:00.046Z,66.70
2019-04-14T07:11:27.616Z,69.10
2019-04-14T07:13:55.171Z,61.93
2019-04-14T07:16:22.739Z,68.00
2019-04-14T07:18:50.296Z,64.60
2019-04-14T07:21:17.860Z,63.93
2019-04-14T07:23:47.223Z,67.67
2019-04-14T07:26:13.027Z,59.87
2019-04-14T07:28:40.676Z,62.37
2019-04-14T07:31:09.143Z,62.03
2019-04-14T07:33:40.353Z,66.37
2019-04-14T07:36:13.604Z,61.77
2019-04-14T07:38:44.091Z,59.40
2019-04-14T07:41:11.659Z,55.73
2019-04-14T07:43:41.131Z,58.77
2019-04-14T07:46:09.475Z,56.20
2019-04-14T07:48:47.860Z,55.40
2019-04-14T07:51:15.857Z,56.93
2019-04-14T07:53:45.133Z,57.13
2019-04-14T07:56:13.520Z,53.80
2019-04-14T07:58:47.448Z,54.07
2019-04-14T08:01:29.908Z,53.40
2019-04-14T08:04:01.021Z,57.93
2019-04-14T08:06:29.352Z,57.80
2019-04-14T08:08:56.912Z,59.67
2019-04-14T08:11:24.470Z,57.30
2019-04-14T08:13:52.027Z,60.60
2019-04-14T08:16:20.515Z,68.30
2019-04-14T08:18:48.083Z,55.93
2019-04-14T08:21:15.642Z,57.90
2019-04-14T08:23:43.207Z,49.70
2019-04-14T08:26:10.783Z,49.45
2019-04-14T08:28:38.344Z,50.83
2019-04-14T08:31:06.679Z,50.67
2019-04-14T08:33:34.244Z,59.70
2019-04-14T08:36:01.804Z,53.03
2019-04-14T08:38:30.128Z,82.27
2019-04-14T08:40:57.701Z,62.33
2019-04-14T08:43:29.189Z,65.80
2019-04-14T08:45:57.464Z,65.07
2019-04-14T08:51:21.160Z,57.75
2019-04-14T08:53:50.662Z,64.00
2019-04-14T08:56:23.860Z,58.93
2019-04-14T08:58:52.366Z,56.93
2019-04-14T09:01:22.591Z,52.33
2019-04-14T09:03:55.885Z,56.10
2019-04-14T09:06:29.455Z,52.70
2019-04-14T09:09:11.655Z,59.77
2019-04-14T09:11:42.654Z,56.97
2019-04-14T09:14:10.223Z,61.77
2019-04-14T09:16:37.790Z,60.27
2019-04-14T09:19:07.775Z,72.17
2019-04-14T09:21:33.955Z,79.90
2019-04-14T09:24:01.515Z,71.27
2019-04-14T09:26:30.068Z,70.80
2019-04-14T09:28:57.632Z,83.20
2019-04-14T09:31:25.195Z,62.93
2019-04-14T09:33:53.528Z,54.70
2019-04-14T09:36:21.097Z,64.03
2019-04-14T09:38:48.660Z,60.27
2019-04-14T09:41:16.225Z,79.00
2019-04-14T09:43:43.798Z,85.17
2019-04-14T09:46:11.360Z,63.77
2019-04-14T09:48:38.924Z,69.00
2019-04-14T09:51:06.499Z,56.80
2019-04-14T09:53:34.067Z,53.33
2019-04-14T09:56:03.586Z,58.90
2019-04-14T09:58:31.151Z,82.50
2019-04-14T10:00:58.724Z,77.53
2019-04-14T10:03:26.292Z,70.30
2019-04-14T10:05:53.852Z,63.80
2019-04-14T10:08:21.459Z,62.60
2019-04-14T10:10:49.067Z,57.87
2019-04-14T10:13:17.423Z,57.23
2019-04-14T10:15:44.987Z,54.30
2019-04-14T10:18:12.546Z,136.93
2019-04-14T10:20:40.103Z,55.93
2019-04-14T10:23:07.667Z,57.07
2019-04-14T10:25:35.236Z,53.33
2019-04-14T10:28:02.799Z,66.20
2019-04-14T10:30:32.064Z,63.93
2019-04-14T10:32:59.631Z,48.97
2019-04-14T10:35:27.191Z,52.63
2019-04-14T10:37:54.761Z,53.10
2019-04-14T10:40:22.331Z,58.70
2019-04-14T10:42:50.490Z,58.80
2019-04-14T10:45:18.452Z,57.60
2019-04-14T10:47:45.876Z,53.43
2019-04-14T10:50:14.238Z,49.40
2019-04-14T10:52:41.797Z,51.83
2019-04-14T10:55:09.357Z,51.83
2019-04-14T10:57:36.921Z,50.90
2019-04-14T11:00:05.400Z,51.47
2019-04-14T11:02:33.930Z,48.30
2019-04-14T11:05:01.342Z,52.17
2019-04-14T11:07:28.917Z,48.17
2019-04-14T11:09:56.487Z,51.70
2019-04-14T11:12:24.055Z,50.60
2019-04-14T11:14:52.387Z,50.30
2019-04-14T11:17:19.943Z,49.10
2019-04-14T11:19:47.511Z,48.23
2019-04-14T11:22:15.084Z,51.13
2019-04-14T11:24:44.571Z,47.10
2019-04-14T11:27:12.132Z,46.70
2019-04-14T11:29:39.703Z,48.83
2019-04-14T11:32:13.728Z,55.07
2019-04-14T11:37:56.750Z,48.95
2019-04-14T11:40:24.319Z,48.50
2019-04-14T11:42:52.811Z,48.20
2019-04-14T11:45:19.527Z,43.83
2019-04-14T11:47:48.023Z,47.57
2019-04-14T11:50:16.372Z,50.43
2019-04-14T11:52:43.947Z,47.53
2019-04-14T11:55:13.199Z,49.97
2019-04-14T11:57:40.782Z,59.80
2019-04-14T12:00:09.128Z,50.17
2019-04-14T12:02:37.315Z,52.90
2019-04-14T12:05:12.348Z,48.77
2019-04-14T12:07:55.699Z,49.50
2019-04-14T12:10:23.267Z,51.23
2019-04-14T12:12:50.838Z,52.60
2019-04-14T12:15:19.174Z,48.67
2019-04-14T12:17:48.687Z,50.13
2019-04-14T12:20:16.247Z,46.83
2019-04-14T12:22:43.813Z,59.53
2019-04-14T12:25:11.376Z,61.93
2019-04-14T12:27:39.750Z,50.60
2019-04-14T12:30:06.556Z,53.13
2019-04-14T12:32:34.123Z,52.20
2019-04-14T12:35:01.683Z,64.47
2019-04-14T12:37:29.248Z,64.10
2019-04-14T12:39:57.736Z,50.97
2019-04-14T12:45:32.316Z,53.85
2019-04-14T12:47:59.875Z,45.87
2019-04-14T12:50:27.949Z,43.17
2019-04-14T12:52:55.523Z,48.77
2019-04-14T12:55:23.104Z,56.47
2019-04-14T12:57:51.287Z,48.80
2019-04-14T13:00:20.754Z,46.63
2019-04-14T13:02:48.312Z,45.07
2019-04-14T13:05:16.577Z,44.53
2019-04-14T13:07:44.148Z,51.73
2019-04-14T13:10:11.711Z,44.60
2019-04-14T13:12:39.269Z,44.00
2019-04-14T13:15:06.835Z,47.43
2019-04-14T13:17:35.336Z,49.87
2019-04-14T13:20:02.900Z,50.07
2019-04-14T13:22:34.038Z,45.43
2019-04-14T13:24:58.069Z,50.60
2019-04-14T13:27:25.639Z,52.65
2019-04-14T13:29:53.195Z,47.17
2019-04-14T13:32:20.765Z,47.37
2019-04-14T13:34:48.328Z,45.33
2019-04-14T13:37:15.890Z,45.57
2019-04-14T13:39:43.463Z,46.33
2019-04-14T13:42:11.788Z,48.30
2019-04-14T13:44:41.250Z,47.90
2019-04-14T13:47:08.812Z,50.90
2019-04-14T13:49:36.367Z,48.80
2019-04-14T13:52:04.699Z,60.67
2019-04-14T13:54:32.256Z,52.97
2019-04-14T13:56:59.819Z,49.23
2019-04-14T13:59:27.392Z,47.90
2019-04-14T14:01:56.684Z,49.57
2019-04-14T14:04:24.244Z,51.07
2019-04-14T14:06:52.756Z,50.67
2019-04-14T14:09:20.368Z,47.97
2019-04-14T14:14:46.892Z,46.40
2019-04-14T14:17:31.236Z,46.87
2019-04-14T14:19:59.560Z,48.13
2019-04-14T14:22:38.944Z,50.63
2019-04-14T14:25:06.984Z,56.07
2019-04-14T14:27:35.469Z,53.93
2019-04-14T14:30:03.036Z,54.57
2019-04-14T14:32:32.555Z,52.20
2019-04-14T14:35:00.509Z,52.13
2019-04-14T14:37:29.064Z,52.47
2019-04-14T14:39:56.620Z,52.67
2019-04-14T14:42:24.218Z,52.03
2019-04-14T14:44:55.232Z,48.37
2019-04-14T14:47:22.799Z,51.87
2019-04-14T14:50:05.358Z,53.10
2019-04-14T14:52:33.125Z,46.47
2019-04-14T14:55:00.687Z,52.37
2019-04-14T14:57:28.607Z,49.93
2019-04-14T14:59:56.200Z,46.73
2019-04-14T15:02:23.796Z,46.73
2019-04-14T15:04:53.036Z,54.73
2019-04-14T15:07:20.623Z,50.57
2019-04-14T15:09:48.188Z,48.53
2019-04-14T15:12:15.750Z,50.07
2019-04-14T15:14:44.076Z,47.47
2019-04-14T15:17:11.635Z,52.07
2019-04-14T15:19:39.204Z,47.07
2019-04-14T15:22:06.767Z,47.33
2019-04-14T15:24:36.255Z,43.90
2019-04-14T15:27:03.903Z,41.37
2019-04-14T15:29:31.476Z,44.00
2019-04-14T15:31:59.039Z,41.53
2019-04-14T15:34:26.600Z,40.70
2019-04-14T15:36:56.048Z,39.70
2019-04-14T15:39:23.673Z,43.17
2019-04-14T15:41:51.234Z,39.13
2019-04-14T15:44:18.796Z,39.40
2019-04-14T15:46:46.359Z,37.93
2019-04-14T15:49:13.923Z,41.63
2019-04-14T15:51:41.484Z,45.83
2019-04-14T15:54:09.815Z,36.77
2019-04-14T15:56:38.311Z,40.33
2019-04-14T15:59:11.582Z,37.57
2019-04-14T16:01:39.956Z,38.13
2019-04-14T16:04:08.443Z,40.70
2019-04-14T16:06:41.615Z,41.20
2019-04-14T16:09:09.990Z,40.57
2019-04-14T16:14:50.363Z,34.97
2019-04-14T16:17:18.448Z,43.50
2019-04-14T16:20:02.799Z,39.00
2019-04-14T16:22:30.365Z,37.90
2019-04-14T16:24:57.927Z,40.90
2019-04-14T16:27:35.411Z,40.80
2019-04-14T16:30:08.676Z,40.60
2019-04-14T16:32:41.940Z,42.17
2019-04-14T16:35:09.508Z,38.53
2019-04-14T16:37:37.067Z,44.23
2019-04-14T16:40:04.643Z,41.13
2019-04-14T16:42:32.213Z,42.17
2019-04-14T16:44:59.779Z,43.57
2019-04-14T16:47:27.342Z,40.97
2019-04-14T16:49:54.903Z,41.90
2019-04-14T16:52:22.559Z,42.57
2019-04-14T16:55:02.759Z,37.27
2019-04-14T16:57:37.018Z,41.13
2019-04-14T17:00:04.579Z,37.97
2019-04-14T17:02:32.148Z,39.53
2019-04-14T17:04:59.716Z,38.17
2019-04-14T17:07:27.277Z,37.73
2019-04-14T17:09:55.198Z,38.57
2019-04-14T17:12:22.793Z,33.03
2019-04-14T17:17:53.311Z,35.65
2019-04-14T17:20:21.400Z,31.00
2019-04-14T17:22:49.566Z,35.40
2019-04-14T17:25:20.744Z,30.17
2019-04-14T17:28:06.940Z,35.57
2019-04-14T17:30:50.966Z,36.90
2019-04-14T17:33:18.530Z,35.53
2019-04-14T17:35:46.097Z,35.33
2019-04-14T17:38:13.664Z,105.23
2019-04-14T17:40:42.153Z,58.43
2019-04-14T17:43:27.954Z,51.50
2019-04-14T17:45:55.681Z,41.80
2019-04-14T17:48:24.186Z,42.27
2019-04-14T17:50:51.751Z,42.60
2019-04-14T17:53:23.207Z,88.70
2019-04-14T17:55:54.243Z,61.03
2019-04-14T17:58:31.734Z,45.43
2019-04-14T18:01:04.206Z,52.93
2019-04-14T18:03:36.404Z,49.97
2019-04-14T18:06:17.100Z,49.23
2019-04-14T18:09:05.452Z,51.20
2019-04-14T18:14:36.644Z,45.03
2019-04-14T18:17:05.681Z,49.73
2019-04-14T18:19:37.166Z,50.70
2019-04-14T18:22:04.771Z,48.23
2019-04-14T18:24:42.138Z,45.50
2019-04-14T18:27:00.600Z,44.60
2019-04-14T18:29:28.179Z,45.43
2019-04-14T18:31:55.887Z,44.03
2019-04-14T18:34:24.048Z,40.03
2019-04-14T18:36:55.400Z,42.37
2019-04-14T18:39:41.752Z,45.20
2019-04-14T18:42:24.199Z,46.93
2019-04-14T18:44:52.671Z,45.57
2019-04-14T18:47:24.144Z,45.87
2019-04-14T18:49:55.071Z,49.63
2019-04-14T18:52:22.660Z,54.50
2019-04-14T18:54:55.847Z,53.97
2019-04-14T18:57:40.253Z,51.33
2019-04-14T19:00:10.280Z,50.03
2019-04-14T19:02:37.847Z,54.57
2019-04-14T19:05:05.407Z,57.70
2019-04-14T19:07:33.113Z,53.27
2019-04-14T19:10:00.679Z,53.30
2019-04-14T19:12:48.553Z,51.50
2019-04-14T19:15:16.147Z,56.23
2019-04-14T19:17:46.331Z,55.27
2019-04-14T19:20:13.887Z,54.70
2019-04-14T19:22:41.443Z,53.83
2019-04-14T19:25:09.016Z,54.20
2019-04-14T19:27:37.616Z,55.13
2019-04-14T19:30:05.194Z,51.13
2019-04-14T19:32:32.798Z,55.50
2019-04-14T19:35:00.365Z,48.27
2019-04-14T19:37:27.938Z,53.73
2019-04-14T19:39:55.509Z,50.80
2019-04-14T19:42:23.087Z,51.40
2019-04-14T19:44:50.659Z,51.30
2019-04-14T19:47:18.228Z,56.20
2019-04-14T19:49:45.789Z,55.50
2019-04-14T19:52:13.360Z,53.73
2019-04-14T19:54:41.859Z,58.80
2019-04-14T19:57:09.424Z,51.63
2019-04-14T19:59:36.999Z,53.17
2019-04-14T20:02:04.566Z,61.93
2019-04-14T20:04:32.131Z,62.93
2019-04-14T20:07:01.386Z,55.53
2019-04-14T20:09:30.760Z,59.23
2019-04-14T20:11:56.564Z,55.60
2019-04-14T20:14:24.129Z,56.67
2019-04-14T20:16:52.497Z,58.20
2019-04-14T20:19:33.129Z,53.40
2019-04-14T20:22:06.219Z,52.63
2019-04-14T20:24:35.683Z,50.77
2019-04-14T20:27:03.258Z,60.60
2019-04-14T20:29:31.737Z,58.10
2019-04-14T20:32:04.859Z,54.97
2019-04-14T20:34:34.128Z,54.00
2019-04-14T20:37:02.635Z,52.37
2019-04-14T20:39:30.200Z,54.93
2019-04-14T20:41:57.769Z,56.40
2019-04-14T20:44:26.257Z,56.30
2019-04-14T20:46:53.823Z,54.07
2019-04-14T20:49:21.382Z,60.60
2019-04-14T20:51:49.868Z,60.70
2019-04-14T20:54:19.408Z,57.80
2019-04-14T20:56:46.975Z,59.50
2019-04-14T20:59:16.684Z,53.73
2019-04-14T21:01:45.410Z,60.17
2019-04-14T21:04:19.643Z,56.50
2019-04-14T21:06:52.933Z,54.07
2019-04-14T21:09:20.497Z,62.67
2019-04-14T21:14:48.806Z,58.80
2019-04-14T21:17:36.824Z,59.05
2019-04-14T21:20:07.878Z,61.77
2019-04-14T21:22:41.176Z,56.87
2019-04-14T21:25:23.623Z,54.77
2019-04-14T21:28:07.839Z,57.03
2019-04-14T21:30:45.684Z,52.60
2019-04-14T21:33:28.398Z,56.37
2019-04-14T21:35:56.261Z,58.90
2019-04-14T21:38:40.663Z,58.40
2019-04-14T21:41:08.823Z,60.10
2019-04-14T21:43:36.391Z,62.27
2019-04-14T21:46:05.433Z,59.80
2019-04-14T21:48:33.023Z,58.90
2019-04-14T21:51:00.593Z,57.10
2019-04-14T21:53:28.160Z,58.90
2019-04-14T21:55:55.719Z,59.13
2019-04-14T21:58:38.231Z,63.43
2019-04-14T22:04:34.109Z,67.00
2019-04-14T22:07:12.935Z,67.30
2019-04-14T22:09:41.002Z,67.70
2019-04-14T22:12:09.073Z,65.20
2019-04-14T22:14:36.663Z,64.40
2019-04-14T22:17:04.906Z,60.40
2019-04-14T22:19:33.893Z,62.07
2019-04-14T22:22:02.494Z,61.03
2019-04-14T22:24:31.965Z,66.07
2019-04-14T22:26:59.532Z,61.20
2019-04-14T22:29:27.095Z,63.07
2019-04-14T22:31:55.181Z,61.33
2019-04-14T22:34:22.802Z,57.50
2019-04-14T22:36:50.683Z,60.50
2019-04-14T22:39:18.278Z,58.90
2019-04-14T22:41:47.759Z,57.00
2019-04-14T22:44:15.382Z,57.23
2019-04-14T22:46:43.268Z,58.40
2019-04-14T22:49:10.876Z,54.27
2019-04-14T22:51:38.440Z,57.60
2019-04-14T22:54:07.144Z,58.60
2019-04-14T22:56:39.570Z,57.27
2019-04-14T22:59:04.433Z,61.77
2019-04-14T23:01:32.013Z,63.27
2019-04-14T23:04:08.231Z,51.23
2019-04-14T23:09:35.519Z,52.03
2019-04-14T23:12:04.625Z,51.00
2019-04-14T23:14:35.835Z,48.07
2019-04-14T23:17:05.972Z,53.13
2019-04-14T23:19:38.191Z,46.47
2019-04-14T23:22:22.405Z,51.77
2019-04-14T23:24:50.044Z,52.13
2019-04-14T23:27:17.613Z,50.50
2019-04-14T23:29:45.177Z,52.87
2019-04-14T23:32:12.747Z,47.23
2019-04-14T23:34:40.314Z,50.37
2019-04-14T23:37:07.879Z,52.20
2019-04-14T23:39:37.371Z,48.67
2019-04-14T23:42:04.936Z,48.13
2019-04-14T23:44:34.873Z,57.63
2019-04-14T23:47:02.550Z,52.07
2019-04-14T23:49:30.432Z,51.80
2019-04-14T23:51:58.020Z,49.40
2019-04-14T23:54:25.601Z,51.87
2019-04-14T23:57:04.774Z,50.27
2019-04-14T23:59:20.780Z,60.13
